Aeroporto :
LOGIN :

Iscrizione | Disclaimer

   EN    FR    IT 

 










Sommario :    VFR   VFR Marginale   IFR   IFR Intensivo   IFR Molto Intensivo
Visibilità : 
Base nubi : 
>= 8 km
>= 3000ft
5 / 8 km
1000 / 3000 ft
1500m / 5 km
500 / 1000 ft
800 / 1500m
200 / 500 ft
< 800m
< 200 ft
Simboli :   Temporali  Nebbia  Neve Forte  Precipitazioni Forti  Vento > 20 kt
SIGMETs :   Varie  Temporali  Ghiacco  Turbolenza  Onda orograficha  Ceneri Vulcaniche







- Altitudine del aeroporto : 219 ft
- Codice IATA : DNR
- Carte del aeroporto


LFRD - Dinard

ULTIMO METAR :
  • 200030Z AUTO 29008KT 9999 OVC014 13/11 Q1014 NOSIG

METARs OBSOLETI :
  • 200000Z AUTO 30009KT 260V320 9999 OVC013 13/11 Q1014 NOSIG
  • 192330Z AUTO 29010KT 9999 OVC013 13/11 Q1014 NOSIG
  • 192300Z AUTO 29010KT 9999 BKN013 OVC098 14/12 Q1014 NOSIG
  • 192230Z AUTO 29007KT 9999 BKN014 OVC098 14/12 Q1014 TEMPO BKN040
  • 192200Z AUTO 30007KT 9999 SCT013 OVC098 14/12 Q1013 TEMPO BKN014

TAF TAF LFRD
Valido dal 20 a 00 ore il 21 a 00 ore UTC


192300Z 2000/2024 30010KT 9999 BKN030
TEMPO 2000/2008 BKN014
PROB30
TEMPO 2009/2018 4000 SHRA
ATIS : +33 2 99 16 81 50
Nessun NOTAM noto per questo aeroporto.



MetMap, La meteo Aeronautica in un colpo d'occhio ! - Copyright ORBIFLY Dicembre 2007 - Disclaimer

ORBIFLY MET'MAP TEAM :

Programmazione e sviluppo : Alexandra Zaïnal
Concezione e sviluppo : Baudouin d'Aumeries
Co-Programmazione e sviluppo : Marc-Olivier Méhu
Supporto tecnico e logistico : Manuel Goepfert
Aiuto per la traduzione : Arnaldo La Scala

Contatto : metmap@orbifly.com




FONTI E CREDITI :

   NOAA